Time;durP1;ratioP1;P1;durP2;ratioP2;P2;SDS_P1;SDS_P2;PMS_P1;PMS_P2;Temp;Humidity;BMP_temperature;BMP_pressure;BME280_temperature;BME280_humidity;BME280_pressure;Samples;Min_cycle;Max_cycle;Signal;HPM_P1;HPM_P2
2023/12/16 00:00:31;;;;;;;9.95;5.00;;;;;;;;;;6186120;23;20096;-83
2023/12/16 00:03:16;;;;;;;9.05;4.15;;;;;;;;;;6187466;23;20000;-84
2023/12/16 00:06:02;;;;;;;11.68;5.13;;;;;;;;;;6207468;23;20000;-84
2023/12/16 00:08:48;;;;;;;10.73;5.60;;;;;;;;;;6186950;23;20008;-83
2023/12/16 00:11:33;;;;;;;11.77;6.00;;;;;;;;;;6186556;23;20059;-83
2023/12/16 00:14:18;;;;;;;9.90;6.30;;;;;;;;;;6207578;23;19997;-83
2023/12/16 00:17:03;;;;;;;10.48;5.80;;;;;;;;;;6186525;23;20003;-83
2023/12/16 00:19:49;;;;;;;9.10;5.22;;;;;;;;;;6207797;23;20031;-84
2023/12/16 00:22:46;;;;;;;12.43;5.47;;;;;;;;;;6206803;23;20004;-84
2023/12/16 00:25:31;;;;;;;8.27;4.72;;;;;;;;;;6206541;23;20005;-84
2023/12/16 00:28:17;;;;;;;11.52;5.20;;;;;;;;;;6186940;23;20000;-84
2023/12/16 00:31:02;;;;;;;7.65;5.57;;;;;;;;;;6186422;23;20633;-83
2023/12/16 00:33:48;;;;;;;9.13;5.07;;;;;;;;;;6185724;23;20079;-83
2023/12/16 00:36:33;;;;;;;11.50;5.25;;;;;;;;;;6180764;23;20404;-82
2023/12/16 00:39:18;;;;;;;9.88;5.68;;;;;;;;;;6186979;23;20020;-83
2023/12/16 00:42:07;;;;;;;9.57;5.45;;;;;;;;;;6183549;23;20049;-83
2023/12/16 00:44:52;;;;;;;10.57;5.43;;;;;;;;;;6204794;23;20063;-85
2023/12/16 00:47:38;;;;;;;10.65;5.28;;;;;;;;;;6206339;23;20012;-85
2023/12/16 00:50:24;;;;;;;8.45;5.03;;;;;;;;;;6185850;23;20079;-85
2023/12/16 00:53:13;;;;;;;8.93;4.80;;;;;;;;;;6180216;23;20425;-83
2023/12/16 00:56:01;;;;;;;11.38;6.25;;;;;;;;;;6185212;23;20157;-83
2023/12/16 00:58:46;;;;;;;11.82;5.80;;;;;;;;;;6185644;23;20008;-86
2023/12/16 01:01:32;;;;;;;10.88;6.00;;;;;;;;;;6186068;23;20068;-85
2023/12/16 01:04:17;;;;;;;10.85;7.13;;;;;;;;;;6159166;23;20001;-85
2023/12/16 01:07:06;;;;;;;10.80;6.07;;;;;;;;;;6183274;23;20532;-85
2023/12/16 01:09:51;;;;;;;10.00;6.60;;;;;;;;;;6183558;23;20036;-85
2023/12/16 01:12:40;;;;;;;9.63;5.50;;;;;;;;;;6185409;23;20004;-84
2023/12/16 01:15:26;;;;;;;12.15;5.55;;;;;;;;;;6205792;23;20062;-85
2023/12/16 01:18:11;;;;;;;10.05;6.32;;;;;;;;;;6184777;23;20004;-83
2023/12/16 01:20:57;;;;;;;10.07;6.25;;;;;;;;;;6185514;23;20003;-84
2023/12/16 01:23:42;;;;;;;10.25;6.07;;;;;;;;;;6164744;23;19999;-83
2023/12/16 01:26:27;;;;;;;11.50;6.22;;;;;;;;;;6185029;23;20364;-84
2023/12/16 01:29:13;;;;;;;9.55;6.57;;;;;;;;;;6185694;23;20000;-84
2023/12/16 01:31:58;;;;;;;9.55;5.60;;;;;;;;;;6184787;23;19996;-83
2023/12/16 01:34:43;;;;;;;12.98;6.43;;;;;;;;;;6184193;23;20001;-83
2023/12/16 01:37:29;;;;;;;10.80;6.38;;;;;;;;;;6184732;23;20001;-83
2023/12/16 01:40:14;;;;;;;11.57;6.90;;;;;;;;;;6184850;23;20267;-83
2023/12/16 01:43:07;;;;;;;10.90;6.57;;;;;;;;;;6184601;23;19997;-84
2023/12/16 01:45:59;;;;;;;10.30;5.50;;;;;;;;;;6170761;23;20055;-85
2023/12/16 01:48:45;;;;;;;8.98;5.97;;;;;;;;;;6184213;23;19997;-84
2023/12/16 01:51:32;;;;;;;10.02;5.28;;;;;;;;;;6183884;23;20349;-81
2023/12/16 01:54:17;;;;;;;11.93;5.97;;;;;;;;;;6185467;23;20311;-83
2023/12/16 01:57:04;;;;;;;9.52;6.22;;;;;;;;;;6183773;23;20015;-84
2023/12/16 01:59:50;;;;;;;9.77;5.90;;;;;;;;;;6184377;23;20004;-82
2023/12/16 02:02:35;;;;;;;10.35;6.28;;;;;;;;;;6184773;23;20480;-82
2023/12/16 02:05:20;;;;;;;10.40;5.90;;;;;;;;;;6179428;23;20027;-86
2023/12/16 02:08:05;;;;;;;9.05;5.78;;;;;;;;;;6184157;23;20094;-85
2023/12/16 02:10:51;;;;;;;9.85;6.05;;;;;;;;;;6185201;23;20351;-82
2023/12/16 02:13:36;;;;;;;10.32;6.18;;;;;;;;;;6185457;23;20441;-85
2023/12/16 02:16:21;;;;;;;9.43;5.70;;;;;;;;;;6185053;23;20062;-84
2023/12/16 02:19:11;;;;;;;8.77;6.18;;;;;;;;;;6182774;23;20079;-85
2023/12/16 02:21:56;;;;;;;11.02;6.47;;;;;;;;;;6180001;23;19997;-84
2023/12/16 02:24:42;;;;;;;11.25;6.28;;;;;;;;;;6184998;23;20296;-84
2023/12/16 02:27:27;;;;;;;8.77;5.15;;;;;;;;;;6184418;23;20012;-83
2023/12/16 02:30:12;;;;;;;8.63;5.18;;;;;;;;;;6179870;23;20384;-84
2023/12/16 02:32:58;;;;;;;8.48;5.38;;;;;;;;;;6183801;23;20032;-84
2023/12/16 02:35:43;;;;;;;12.20;5.85;;;;;;;;;;6184925;23;20023;-84
2023/12/16 02:38:28;;;;;;;11.55;6.32;;;;;;;;;;6183898;23;19996;-83
2023/12/16 02:41:13;;;;;;;9.38;5.90;;;;;;;;;;6185165;23;20008;-83
2023/12/16 02:43:59;;;;;;;10.13;5.88;;;;;;;;;;6183979;23;20337;-83
2023/12/16 02:46:44;;;;;;;10.85;5.97;;;;;;;;;;6183942;23;20012;-83
2023/12/16 02:49:29;;;;;;;11.48;6.07;;;;;;;;;;6183888;23;20326;-84
2023/12/16 02:52:14;;;;;;;8.90;5.70;;;;;;;;;;6184062;23;19997;-84
2023/12/16 02:54:59;;;;;;;9.77;5.75;;;;;;;;;;6205130;23;20434;-84
2023/12/16 02:57:45;;;;;;;8.43;5.63;;;;;;;;;;6184141;23;20063;-83
2023/12/16 03:00:30;;;;;;;7.90;5.32;;;;;;;;;;6184350;23;20028;-83
2023/12/16 03:03:15;;;;;;;9.90;4.90;;;;;;;;;;6186426;23;20005;-83
2023/12/16 03:06:05;;;;;;;10.30;6.03;;;;;;;;;;6188349;23;19997;-83
2023/12/16 03:08:50;;;;;;;8.20;4.90;;;;;;;;;;6188597;23;20004;-82
2023/12/16 03:11:35;;;;;;;8.60;5.32;;;;;;;;;;6186265;23;20396;-82
2023/12/16 03:14:20;;;;;;;9.40;5.47;;;;;;;;;;6186067;23;20004;-84
2023/12/16 03:17:05;;;;;;;9.20;5.85;;;;;;;;;;6188072;23;20012;-83
2023/12/16 03:19:51;;;;;;;10.50;5.35;;;;;;;;;;6188555;23;19993;-85
2023/12/16 03:22:36;;;;;;;9.23;5.35;;;;;;;;;;6186343;23;20033;-86
2023/12/16 03:25:22;;;;;;;9.70;5.40;;;;;;;;;;6188981;23;20008;-83
2023/12/16 03:28:07;;;;;;;9.75;5.53;;;;;;;;;;6188167;23;20031;-83
2023/12/16 03:30:52;;;;;;;9.38;5.40;;;;;;;;;;6209463;23;20011;-84
2023/12/16 03:33:37;;;;;;;8.35;5.63;;;;;;;;;;6188766;23;20031;-84
2023/12/16 03:36:23;;;;;;;9.48;5.10;;;;;;;;;;6190282;23;20008;-85
2023/12/16 03:39:08;;;;;;;12.90;5.35;;;;;;;;;;6189834;23;20039;-83
2023/12/16 03:41:53;;;;;;;7.88;5.05;;;;;;;;;;6190744;23;19996;-84
2023/12/16 03:44:38;;;;;;;7.15;4.38;;;;;;;;;;6190371;23;20076;-85
2023/12/16 03:47:24;;;;;;;9.52;5.15;;;;;;;;;;6210760;23;20024;-85
2023/12/16 03:50:09;;;;;;;10.70;5.95;;;;;;;;;;6190008;23;20001;-83
2023/12/16 03:52:54;;;;;;;10.05;4.75;;;;;;;;;;6190271;23;20488;-84
2023/12/16 03:55:39;;;;;;;8.55;5.40;;;;;;;;;;6189921;23;20146;-83
2023/12/16 03:58:25;;;;;;;7.63;4.57;;;;;;;;;;6189378;23;20009;-84
2023/12/16 04:01:13;;;;;;;9.10;5.10;;;;;;;;;;6190884;23;20307;-84
2023/12/16 04:04:01;;;;;;;9.15;5.90;;;;;;;;;;6181426;23;19997;-84
2023/12/16 04:06:47;;;;;;;6.40;4.40;;;;;;;;;;6184410;23;20079;-84
2023/12/16 04:09:32;;;;;;;8.55;5.25;;;;;;;;;;6185069;23;20004;-83
2023/12/16 04:12:20;;;;;;;10.40;5.70;;;;;;;;;;6207169;23;20006;-85
2023/12/16 04:15:06;;;;;;;7.50;4.70;;;;;;;;;;6185498;23;20004;-84
2023/12/16 04:17:51;;;;;;;7.70;4.78;;;;;;;;;;6185036;23;20008;-85
2023/12/16 04:20:37;;;;;;;7.72;4.88;;;;;;;;;;6163297;23;20012;-84
2023/12/16 04:23:23;;;;;;;9.00;4.80;;;;;;;;;;6186005;23;20686;-83
2023/12/16 04:26:08;;;;;;;7.00;4.63;;;;;;;;;;6186199;23;20046;-82
2023/12/16 04:29:02;;;;;;;7.90;4.57;;;;;;;;;;6185327;23;20069;-83
2023/12/16 04:31:47;;;;;;;9.68;5.30;;;;;;;;;;6185783;23;20127;-83
2023/12/16 04:34:32;;;;;;;9.73;5.10;;;;;;;;;;6185098;23;20024;-82
2023/12/16 04:37:18;;;;;;;8.63;4.25;;;;;;;;;;6186057;23;20118;-86
2023/12/16 04:40:05;;;;;;;8.40;4.88;;;;;;;;;;6185884;23;20090;-83
2023/12/16 04:42:50;;;;;;;7.85;4.05;;;;;;;;;;6184937;23;20004;-84
2023/12/16 04:45:35;;;;;;;7.30;4.00;;;;;;;;;;6185888;23;20061;-85
2023/12/16 04:48:20;;;;;;;7.57;4.80;;;;;;;;;;6185470;23;20000;-85
2023/12/16 04:51:06;;;;;;;10.70;5.07;;;;;;;;;;6185839;23;20314;-83
2023/12/16 04:53:52;;;;;;;7.07;4.95;;;;;;;;;;6165449;23;20015;-85
2023/12/16 04:56:37;;;;;;;8.93;5.35;;;;;;;;;;6186007;23;20008;-85
2023/12/16 04:59:23;;;;;;;9.45;5.15;;;;;;;;;;6184705;23;20096;-83
2023/12/16 05:02:08;;;;;;;8.82;5.30;;;;;;;;;;6185725;23;20056;-84
2023/12/16 05:04:53;;;;;;;9.57;5.43;;;;;;;;;;6185217;23;20507;-83
2023/12/16 05:07:39;;;;;;;8.25;4.25;;;;;;;;;;6185869;23;20071;-84
2023/12/16 05:10:24;;;;;;;7.85;4.30;;;;;;;;;;6185123;23;20048;-83
2023/12/16 05:13:10;;;;;;;9.75;4.97;;;;;;;;;;6185393;23;20039;-86
2023/12/16 05:15:55;;;;;;;7.75;4.82;;;;;;;;;;6185674;23;20076;-84
2023/12/16 05:18:40;;;;;;;9.60;5.15;;;;;;;;;;6185219;23;20008;-84
2023/12/16 05:21:25;;;;;;;8.75;5.30;;;;;;;;;;6185526;23;20005;-84
2023/12/16 05:24:10;;;;;;;7.35;4.85;;;;;;;;;;6183847;23;20325;-85
2023/12/16 05:26:56;;;;;;;7.55;4.85;;;;;;;;;;6185777;23;20082;-85
2023/12/16 05:29:41;;;;;;;8.02;5.38;;;;;;;;;;6185611;23;19997;-85
2023/12/16 05:32:26;;;;;;;9.60;4.63;;;;;;;;;;6184996;23;19997;-84
2023/12/16 05:35:11;;;;;;;10.95;5.15;;;;;;;;;;6185026;23;20472;-84
2023/12/16 05:37:57;;;;;;;7.57;4.57;;;;;;;;;;6184648;23;20334;-83
2023/12/16 05:40:42;;;;;;;12.25;5.53;;;;;;;;;;6185002;23;20020;-86
2023/12/16 05:43:27;;;;;;;8.85;4.47;;;;;;;;;;6185713;23;20011;-84
2023/12/16 05:46:12;;;;;;;7.95;5.05;;;;;;;;;;6185759;23;20020;-84
2023/12/16 05:48:58;;;;;;;9.23;4.97;;;;;;;;;;6184912;23;20005;-86
2023/12/16 05:51:43;;;;;;;7.15;4.75;;;;;;;;;;6185417;23;20004;-84
2023/12/16 05:54:28;;;;;;;7.35;4.60;;;;;;;;;;6185982;23;20051;-85
2023/12/16 05:57:13;;;;;;;9.20;4.68;;;;;;;;;;6164472;23;20052;-85
2023/12/16 05:59:59;;;;;;;8.82;4.95;;;;;;;;;;6185095;23;20071;-83
2023/12/16 06:02:44;;;;;;;8.55;3.90;;;;;;;;;;6185192;23;20005;-83
2023/12/16 06:05:29;;;;;;;10.65;4.72;;;;;;;;;;6184757;23;20007;-85
2023/12/16 06:08:15;;;;;;;7.95;4.63;;;;;;;;;;6184881;23;20045;-85
2023/12/16 06:11:00;;;;;;;8.07;4.45;;;;;;;;;;6184224;23;20000;-85
2023/12/16 06:13:45;;;;;;;6.63;3.90;;;;;;;;;;6184356;23;20004;-84
2023/12/16 06:16:31;;;;;;;7.53;4.32;;;;;;;;;;6183825;23;20008;-85
2023/12/16 06:19:16;;;;;;;8.02;4.45;;;;;;;;;;6183928;23;20028;-84
2023/12/16 06:22:04;;;;;;;6.63;4.28;;;;;;;;;;6185079;23;19996;-85
2023/12/16 06:24:50;;;;;;;7.07;3.88;;;;;;;;;;6185620;23;19996;-85
2023/12/16 06:27:35;;;;;;;7.00;3.92;;;;;;;;;;6164518;23;20008;-85
2023/12/16 06:30:21;;;;;;;8.50;4.38;;;;;;;;;;6164404;23;20027;-84
2023/12/16 06:33:06;;;;;;;7.35;4.45;;;;;;;;;;6184811;23;20015;-84
2023/12/16 06:35:51;;;;;;;10.23;4.35;;;;;;;;;;6184593;23;20083;-85
2023/12/16 06:38:36;;;;;;;7.38;3.80;;;;;;;;;;6184783;23;20005;-85
2023/12/16 06:41:22;;;;;;;8.07;4.57;;;;;;;;;;6185082;23;19996;-85
2023/12/16 06:44:07;;;;;;;8.27;4.10;;;;;;;;;;6184944;23;20437;-85
2023/12/16 06:46:53;;;;;;;7.57;4.07;;;;;;;;;;6184840;23;20009;-85
2023/12/16 06:49:38;;;;;;;8.73;4.25;;;;;;;;;;6183991;23;20000;-84
2023/12/16 06:52:23;;;;;;;13.60;4.75;;;;;;;;;;6184775;23;20080;-84
2023/12/16 06:55:08;;;;;;;8.10;4.40;;;;;;;;;;6185111;23;20051;-85
2023/12/16 06:57:54;;;;;;;7.10;4.95;;;;;;;;;;6184502;23;20004;-82
2023/12/16 07:00:42;;;;;;;6.95;4.32;;;;;;;;;;6182317;23;20323;-84
2023/12/16 07:03:28;;;;;;;8.90;4.35;;;;;;;;;;6185031;23;20076;-82
2023/12/16 07:06:13;;;;;;;10.80;4.60;;;;;;;;;;6184954;23;20767;-85
2023/12/16 07:08:58;;;;;;;9.20;5.25;;;;;;;;;;6184736;23;20166;-84
2023/12/16 07:11:44;;;;;;;8.23;4.55;;;;;;;;;;6200349;22;19985;-86
2023/12/16 07:14:28;;;;;;;6.45;3.85;;;;;;;;;;6232406;22;20047;-83
2023/12/16 07:17:12;;;;;;;8.02;4.68;;;;;;;;;;6231957;22;20040;-84
2023/12/16 07:19:59;;;;;;;7.68;4.47;;;;;;;;;;6206887;23;20019;-84
2023/12/16 07:22:44;;;;;;;7.60;4.57;;;;;;;;;;6213167;23;20000;-84
2023/12/16 07:25:28;;;;;;;7.95;4.80;;;;;;;;;;6234181;22;20075;-84
2023/12/16 07:28:13;;;;;;;7.38;4.57;;;;;;;;;;6230168;23;20011;-83
2023/12/16 07:30:57;;;;;;;8.02;4.43;;;;;;;;;;6219694;23;20055;-85
2023/12/16 07:33:42;;;;;;;6.38;3.95;;;;;;;;;;6186991;23;20000;-85
2023/12/16 07:36:28;;;;;;;8.38;4.75;;;;;;;;;;6185125;23;20032;-84
2023/12/16 07:39:13;;;;;;;7.90;4.75;;;;;;;;;;6187005;23;20031;-84
2023/12/16 07:41:58;;;;;;;6.30;4.18;;;;;;;;;;6186047;23;20012;-83
2023/12/16 07:44:43;;;;;;;7.68;4.32;;;;;;;;;;6185310;23;20088;-84
2023/12/16 07:47:29;;;;;;;6.18;4.07;;;;;;;;;;6185524;23;20025;-84
2023/12/16 07:50:16;;;;;;;8.50;4.68;;;;;;;;;;6164909;23;20020;-84
2023/12/16 07:53:02;;;;;;;8.68;4.65;;;;;;;;;;6185589;23;20035;-84
2023/12/16 07:55:48;;;;;;;6.05;3.85;;;;;;;;;;6184700;23;20355;-84
2023/12/16 07:58:34;;;;;;;7.95;4.93;;;;;;;;;;6185759;23;20441;-83
2023/12/16 08:01:19;;;;;;;8.45;4.72;;;;;;;;;;6185541;23;20008;-84
2023/12/16 08:04:05;;;;;;;8.70;4.95;;;;;;;;;;6164041;23;20012;-85
2023/12/16 08:06:50;;;;;;;8.85;4.95;;;;;;;;;;6185601;23;20031;-84
2023/12/16 08:09:35;;;;;;;8.82;4.65;;;;;;;;;;6186358;23;20008;-85
2023/12/16 08:12:20;;;;;;;7.15;4.30;;;;;;;;;;6186397;23;20075;-82
2023/12/16 08:15:06;;;;;;;8.05;4.60;;;;;;;;;;6205772;23;19997;-82
2023/12/16 08:17:51;;;;;;;10.50;4.63;;;;;;;;;;6186681;23;20076;-86
2023/12/16 08:20:55;;;;;;;10.77;5.22;;;;;;;;;;6188423;23;20056;-83
2023/12/16 08:23:40;;;;;;;9.45;4.90;;;;;;;;;;6163920;23;20424;-81
2023/12/16 08:26:27;;;;;;;8.77;5.10;;;;;;;;;;6182575;23;20354;-81
2023/12/16 08:29:12;;;;;;;10.43;5.75;;;;;;;;;;6184595;23;20410;-80
2023/12/16 08:31:57;;;;;;;9.38;4.47;;;;;;;;;;6184726;23;20008;-83
2023/12/16 08:34:42;;;;;;;7.00;3.92;;;;;;;;;;6185822;23;20095;-85
2023/12/16 08:37:27;;;;;;;8.82;4.55;;;;;;;;;;6186194;23;20043;-82
2023/12/16 08:40:13;;;;;;;8.80;4.20;;;;;;;;;;6207531;23;20083;-82
2023/12/16 08:42:58;;;;;;;6.20;3.92;;;;;;;;;;6186738;23;20007;-82
2023/12/16 08:45:43;;;;;;;7.05;4.15;;;;;;;;;;6186260;23;20044;-83
2023/12/16 08:48:29;;;;;;;8.52;4.03;;;;;;;;;;6205546;23;20087;-81
2023/12/16 08:51:19;;;;;;;6.70;3.85;;;;;;;;;;6207298;23;20005;-83
2023/12/16 08:54:04;;;;;;;8.18;4.30;;;;;;;;;;6186250;23;20048;-82
2023/12/16 08:56:50;;;;;;;7.65;4.47;;;;;;;;;;6186457;23;20004;-84
2023/12/16 08:59:35;;;;;;;7.50;4.07;;;;;;;;;;6207842;23;20021;-83
2023/12/16 09:02:20;;;;;;;7.50;4.32;;;;;;;;;;6186537;23;20505;-82
2023/12/16 09:05:05;;;;;;;8.57;4.72;;;;;;;;;;6184804;23;20008;-84
2023/12/16 09:07:51;;;;;;;7.32;4.50;;;;;;;;;;6185994;23;20003;-82
2023/12/16 09:10:36;;;;;;;7.68;4.45;;;;;;;;;;6184737;23;20004;-81
2023/12/16 09:13:21;;;;;;;9.18;4.80;;;;;;;;;;6186430;23;20075;-80
2023/12/16 09:16:06;;;;;;;7.57;4.40;;;;;;;;;;6181084;23;20433;-81
2023/12/16 09:18:52;;;;;;;8.32;4.63;;;;;;;;;;6185602;23;20393;-82
2023/12/16 09:21:37;;;;;;;7.50;4.68;;;;;;;;;;6185988;23;20001;-82
2023/12/16 09:24:23;;;;;;;7.78;4.20;;;;;;;;;;6207640;23;20024;-81
2023/12/16 09:27:08;;;;;;;9.98;4.70;;;;;;;;;;6185285;23;20039;-81
2023/12/16 09:29:54;;;;;;;7.28;4.25;;;;;;;;;;6185973;23;20046;-84
2023/12/16 09:32:42;;;;;;;8.88;4.95;;;;;;;;;;6184996;23;20001;-84
2023/12/16 09:35:27;;;;;;;7.72;4.78;;;;;;;;;;6206019;23;20004;-84
2023/12/16 09:38:12;;;;;;;8.93;4.78;;;;;;;;;;6185681;23;20100;-84
2023/12/16 09:40:58;;;;;;;6.88;3.92;;;;;;;;;;6185861;23;20086;-83
2023/12/16 09:43:45;;;;;;;7.15;4.25;;;;;;;;;;6185095;23;20492;-88
2023/12/16 09:46:30;;;;;;;6.82;3.95;;;;;;;;;;6205933;23;20012;-84
2023/12/16 09:49:16;;;;;;;10.35;4.75;;;;;;;;;;6186269;23;20063;-83
2023/12/16 09:52:01;;;;;;;7.82;4.32;;;;;;;;;;6185142;23;20004;-83
2023/12/16 09:54:47;;;;;;;8.75;4.72;;;;;;;;;;6185001;23;20083;-84
2023/12/16 09:57:35;;;;;;;7.80;4.57;;;;;;;;;;6185225;23;20013;-84
2023/12/16 10:00:20;;;;;;;6.45;3.83;;;;;;;;;;6207730;23;19997;-88
2023/12/16 10:03:06;;;;;;;6.95;4.03;;;;;;;;;;6186791;23;20005;-87
2023/12/16 10:05:51;;;;;;;6.68;4.05;;;;;;;;;;6206349;23;19999;-86
2023/12/16 10:08:38;;;;;;;10.70;4.78;;;;;;;;;;6187150;23;20088;-87
2023/12/16 10:11:23;;;;;;;9.90;5.07;;;;;;;;;;6186110;23;20011;-88
2023/12/16 10:14:08;;;;;;;7.50;3.80;;;;;;;;;;6186163;23;20341;-87
2023/12/16 10:17:03;;;;;;;6.70;3.80;;;;;;;;;;6184760;23;20423;-87
2023/12/16 10:19:49;;;;;;;8.75;3.90;;;;;;;;;;6185995;23;20005;-86
2023/12/16 10:22:34;;;;;;;7.82;4.10;;;;;;;;;;6185850;23;20000;-87
2023/12/16 10:25:19;;;;;;;7.13;4.22;;;;;;;;;;6186803;23;20000;-86
2023/12/16 10:28:05;;;;;;;7.47;3.90;;;;;;;;;;6183705;23;20055;-86
2023/12/16 10:30:50;;;;;;;11.07;5.65;;;;;;;;;;6185973;23;20032;-87
2023/12/16 10:33:35;;;;;;;10.18;4.63;;;;;;;;;;6186250;23;20058;-86
2023/12/16 10:36:20;;;;;;;11.43;5.40;;;;;;;;;;6185966;23;20468;-88
2023/12/16 10:39:06;;;;;;;7.45;4.22;;;;;;;;;;6184718;23;20015;-84
2023/12/16 10:41:51;;;;;;;9.07;4.68;;;;;;;;;;6184701;23;20058;-85
2023/12/16 10:44:36;;;;;;;8.13;4.65;;;;;;;;;;6180613;23;20054;-83
2023/12/16 10:47:24;;;;;;;11.57;5.05;;;;;;;;;;6204795;23;20020;-81
2023/12/16 10:50:12;;;;;;;6.70;4.00;;;;;;;;;;6163383;23;20386;-82
2023/12/16 10:52:59;;;;;;;10.73;4.35;;;;;;;;;;6184603;23;20009;-82
2023/12/16 10:55:44;;;;;;;7.80;4.10;;;;;;;;;;6207421;23;20493;-86
2023/12/16 10:58:35;;;;;;;7.40;4.28;;;;;;;;;;6183975;23;20015;-83
2023/12/16 11:01:21;;;;;;;8.30;4.30;;;;;;;;;;6180375;23;20075;-84
2023/12/16 11:04:26;;;;;;;8.55;4.20;;;;;;;;;;6178653;23;20361;-84
2023/12/16 11:07:13;;;;;;;7.50;4.07;;;;;;;;;;6185341;23;20007;-84
2023/12/16 11:09:59;;;;;;;6.40;4.05;;;;;;;;;;6185156;23;20024;-83
2023/12/16 11:12:45;;;;;;;7.32;3.53;;;;;;;;;;6185239;23;20062;-83
2023/12/16 11:15:30;;;;;;;6.97;4.45;;;;;;;;;;6180594;23;20003;-83
2023/12/16 11:18:16;;;;;;;9.45;3.95;;;;;;;;;;6179287;23;20055;-82
2023/12/16 11:21:04;;;;;;;8.13;4.03;;;;;;;;;;6184406;23;19993;-83
2023/12/16 11:23:50;;;;;;;6.13;3.88;;;;;;;;;;6182592;23;20055;-82
2023/12/16 11:26:35;;;;;;;8.55;4.30;;;;;;;;;;6181850;23;20005;-82
2023/12/16 11:29:22;;;;;;;8.20;3.97;;;;;;;;;;6185514;23;19997;-79
2023/12/16 11:32:09;;;;;;;6.88;3.72;;;;;;;;;;6184831;23;20366;-82
2023/12/16 11:34:54;;;;;;;7.97;4.15;;;;;;;;;;6205530;23;19997;-82
2023/12/16 11:37:40;;;;;;;10.38;5.05;;;;;;;;;;6184301;23;19997;-83
2023/12/16 11:40:39;;;;;;;12.48;4.93;;;;;;;;;;6184316;23;20353;-81
2023/12/16 11:43:24;;;;;;;;;;;;;;;;;;6203906;23;20004;-82
2023/12/16 11:46:30;;;;;;;7.50;3.97;;;;;;;;;;6183302;23;19907;-80
2023/12/16 11:49:16;;;;;;;14.27;4.45;;;;;;;;;;6183421;23;20353;-80
2023/12/16 11:52:02;;;;;;;6.78;3.35;;;;;;;;;;6183619;23;20441;-83
2023/12/16 11:54:54;;;;;;;7.97;3.70;;;;;;;;;;6185233;23;20511;-82
2023/12/16 11:57:42;;;;;;;7.78;3.97;;;;;;;;;;6181092;23;20047;-83
2023/12/16 12:00:27;;;;;;;8.73;4.18;;;;;;;;;;6185454;23;19996;-82
2023/12/16 12:03:12;;;;;;;8.25;3.45;;;;;;;;;;6185157;23;20000;-82
2023/12/16 12:05:57;;;;;;;16.83;4.18;;;;;;;;;;6185594;23;20008;-82
2023/12/16 12:08:44;;;;;;;8.98;3.63;;;;;;;;;;6185375;23;20040;-81
2023/12/16 12:11:29;;;;;;;15.07;4.90;;;;;;;;;;6206524;23;20001;-81
2023/12/16 12:14:15;;;;;;;10.45;3.92;;;;;;;;;;6185589;23;20004;-81
2023/12/16 12:17:02;;;;;;;8.50;4.32;;;;;;;;;;6185839;23;20333;-83
2023/12/16 12:19:48;;;;;;;10.38;4.05;;;;;;;;;;6206348;23;20028;-80
2023/12/16 12:22:33;;;;;;;9.85;4.80;;;;;;;;;;6184773;23;20004;-80
2023/12/16 12:25:18;;;;;;;9.32;4.22;;;;;;;;;;6205525;23;20009;-80
2023/12/16 12:28:10;;;;;;;9.30;3.70;;;;;;;;;;6184840;23;20003;-80
2023/12/16 12:31:02;;;;;;;10.32;5.30;;;;;;;;;;6185268;23;20004;-80
2023/12/16 12:33:49;;;;;;;8.85;4.18;;;;;;;;;;6186061;23;20445;-82
2023/12/16 12:36:34;;;;;;;10.07;5.03;;;;;;;;;;6184195;23;20016;-79
2023/12/16 12:39:20;;;;;;;9.52;4.10;;;;;;;;;;6186103;23;20004;-79
2023/12/16 12:42:05;;;;;;;9.40;4.47;;;;;;;;;;6185960;23;20004;-78
2023/12/16 12:44:52;;;;;;;10.73;4.55;;;;;;;;;;6185453;23;20083;-78
2023/12/16 12:47:37;;;;;;;13.65;5.20;;;;;;;;;;6206323;23;20070;-78
2023/12/16 12:50:23;;;;;;;7.63;3.45;;;;;;;;;;6185446;23;20031;-78
2023/12/16 12:53:19;;;;;;;12.40;5.45;;;;;;;;;;6185166;23;20035;-77
2023/12/16 12:56:04;;;;;;;9.85;3.63;;;;;;;;;;6207636;23;20609;-76
2023/12/16 12:58:50;;;;;;;7.32;3.65;;;;;;;;;;6165218;23;20004;-76
2023/12/16 13:01:35;;;;;;;7.47;3.70;;;;;;;;;;6185102;23;20000;-76
2023/12/16 13:04:20;;;;;;;11.52;3.78;;;;;;;;;;6165160;23;20007;-76
2023/12/16 13:07:06;;;;;;;9.23;4.32;;;;;;;;;;6185678;23;20028;-77
2023/12/16 13:09:51;;;;;;;10.02;4.15;;;;;;;;;;6185155;23;20028;-78
2023/12/16 13:12:36;;;;;;;15.20;7.00;;;;;;;;;;6185472;23;20072;-79
2023/12/16 13:15:22;;;;;;;15.13;6.03;;;;;;;;;;6186307;23;20004;-78
2023/12/16 13:18:07;;;;;;;13.38;4.20;;;;;;;;;;6165381;23;20000;-79
2023/12/16 13:20:53;;;;;;;11.30;4.47;;;;;;;;;;6186410;23;19996;-77
2023/12/16 13:23:39;;;;;;;13.57;4.32;;;;;;;;;;6186267;23;20008;-78
2023/12/16 13:26:24;;;;;;;9.50;3.72;;;;;;;;;;6185497;23;19996;-78
2023/12/16 13:29:09;;;;;;;7.15;3.50;;;;;;;;;;6185698;23;20047;-80
2023/12/16 13:31:56;;;;;;;8.57;4.30;;;;;;;;;;6185466;23;20027;-81
2023/12/16 13:34:41;;;;;;;9.65;3.95;;;;;;;;;;6185192;23;20076;-78
2023/12/16 13:37:27;;;;;;;7.68;4.50;;;;;;;;;;6184732;23;20389;-80
2023/12/16 13:40:12;;;;;;;10.30;5.00;;;;;;;;;;6207119;23;20315;-82
2023/12/16 13:42:57;;;;;;;15.93;4.68;;;;;;;;;;6185478;23;20050;-81
2023/12/16 13:45:43;;;;;;;10.32;4.47;;;;;;;;;;6187671;23;20012;-91
2023/12/16 13:48:28;;;;;;;9.65;4.43;;;;;;;;;;6187216;23;20011;-84
2023/12/16 13:51:13;;;;;;;13.57;4.78;;;;;;;;;;6186799;23;20038;-82
2023/12/16 13:53:58;;;;;;;11.15;4.30;;;;;;;;;;6206629;23;20000;-80
2023/12/16 13:56:43;;;;;;;9.15;3.70;;;;;;;;;;6186045;23;20131;-81
2023/12/16 13:59:32;;;;;;;12.77;4.63;;;;;;;;;;6206363;23;20016;-80
2023/12/16 14:02:17;;;;;;;11.40;3.30;;;;;;;;;;6185858;23;19996;-80
2023/12/16 14:05:03;;;;;;;8.75;2.92;;;;;;;;;;6185759;23;20426;-82
2023/12/16 14:07:48;;;;;;;16.45;6.70;;;;;;;;;;6185207;23;20079;-80
2023/12/16 14:10:35;;;;;;;13.75;3.92;;;;;;;;;;6185113;23;20007;-81
2023/12/16 14:13:22;;;;;;;11.27;3.58;;;;;;;;;;6183295;23;20075;-81
2023/12/16 14:16:07;;;;;;;7.35;3.17;;;;;;;;;;6184679;23;19997;-78
2023/12/16 14:18:53;;;;;;;11.50;4.63;;;;;;;;;;6185398;23;20004;-80
2023/12/16 14:21:38;;;;;;;10.73;3.25;;;;;;;;;;6181064;23;20024;-80
2023/12/16 14:24:23;;;;;;;10.25;3.00;;;;;;;;;;6184462;23;20006;-78
2023/12/16 14:27:08;;;;;;;10.48;3.25;;;;;;;;;;6205490;23;20285;-79
2023/12/16 14:29:54;;;;;;;8.10;4.25;;;;;;;;;;6185215;23;19998;-79
2023/12/16 14:32:39;;;;;;;7.65;3.00;;;;;;;;;;6184824;23;20076;-79
2023/12/16 14:35:25;;;;;;;11.13;3.53;;;;;;;;;;6184444;23;20083;-80
2023/12/16 14:38:10;;;;;;;10.00;3.17;;;;;;;;;;6183440;23;20076;-79
2023/12/16 14:40:56;;;;;;;9.90;3.55;;;;;;;;;;6184868;23;20083;-81
2023/12/16 14:43:41;;;;;;;10.75;3.10;;;;;;;;;;6184661;23;20050;-81
2023/12/16 14:46:26;;;;;;;6.53;2.67;;;;;;;;;;6184280;23;20009;-81
2023/12/16 14:49:11;;;;;;;6.47;2.83;;;;;;;;;;6184138;23;20008;-80
2023/12/16 14:51:56;;;;;;;6.50;2.67;;;;;;;;;;6184873;23;20011;-80
2023/12/16 14:54:41;;;;;;;8.55;4.15;;;;;;;;;;6184005;23;20091;-80
2023/12/16 14:57:27;;;;;;;9.38;3.33;;;;;;;;;;6183011;23;20008;-84
2023/12/16 15:00:12;;;;;;;7.78;3.35;;;;;;;;;;6184212;23;20012;-81
2023/12/16 15:02:57;;;;;;;9.43;3.03;;;;;;;;;;6163565;23;20051;-81
2023/12/16 15:05:44;;;;;;;8.00;2.22;;;;;;;;;;6184065;23;20092;-82
2023/12/16 15:08:29;;;;;;;11.07;3.25;;;;;;;;;;6192889;23;20035;-76
2023/12/16 15:11:14;;;;;;;14.25;5.22;;;;;;;;;;6191366;23;20004;-79
2023/12/16 15:14:00;;;;;;;10.18;3.97;;;;;;;;;;6186589;23;20074;-79
2023/12/16 15:16:46;;;;;;;8.32;3.33;;;;;;;;;;6190232;23;20000;-78
2023/12/16 15:19:32;;;;;;;12.45;3.72;;;;;;;;;;6196750;23;20055;-79
2023/12/16 15:22:19;;;;;;;9.93;3.70;;;;;;;;;;6197599;23;20036;-76
2023/12/16 15:25:04;;;;;;;10.02;2.85;;;;;;;;;;6190403;23;20386;-79
2023/12/16 15:27:49;;;;;;;12.55;3.17;;;;;;;;;;6191659;23;20004;-78
2023/12/16 15:30:35;;;;;;;7.78;2.58;;;;;;;;;;6181632;23;20012;-77
2023/12/16 15:33:20;;;;;;;8.82;2.88;;;;;;;;;;6183799;23;20000;-78
2023/12/16 15:36:09;;;;;;;12.40;4.05;;;;;;;;;;6185034;23;20083;-78
2023/12/16 15:38:54;;;;;;;11.95;3.83;;;;;;;;;;6182786;23;19996;-80
2023/12/16 15:41:40;;;;;;;11.85;4.60;;;;;;;;;;6185191;23;20369;-75
2023/12/16 15:44:25;;;;;;;6.88;3.35;;;;;;;;;;6164772;23;20001;-79
2023/12/16 15:47:11;;;;;;;14.38;5.32;;;;;;;;;;6184991;23;20044;-77
2023/12/16 15:49:56;;;;;;;12.10;5.63;;;;;;;;;;6186121;23;20035;-78
2023/12/16 15:52:41;;;;;;;12.65;4.40;;;;;;;;;;6185692;23;20005;-79
2023/12/16 15:55:26;;;;;;;14.70;4.43;;;;;;;;;;6185672;23;20034;-79
2023/12/16 15:58:12;;;;;;;13.32;4.28;;;;;;;;;;6185846;23;20009;-78
2023/12/16 16:00:57;;;;;;;9.48;3.17;;;;;;;;;;6186008;23;20000;-79
2023/12/16 16:03:42;;;;;;;12.68;3.33;;;;;;;;;;6184636;23;19996;-80
2023/12/16 16:06:29;;;;;;;7.15;2.78;;;;;;;;;;6184227;23;20003;-80
2023/12/16 16:09:14;;;;;;;7.95;3.63;;;;;;;;;;6185167;23;20004;-78
2023/12/16 16:12:01;;;;;;;10.68;4.00;;;;;;;;;;6185350;23;20004;-77
2023/12/16 16:14:46;;;;;;;9.93;3.85;;;;;;;;;;6184306;23;20035;-76
2023/12/16 16:17:31;;;;;;;10.50;4.35;;;;;;;;;;6185320;23;20008;-76
2023/12/16 16:20:16;;;;;;;8.20;3.78;;;;;;;;;;6185619;23;20004;-75
2023/12/16 16:23:04;;;;;;;11.60;3.95;;;;;;;;;;6185406;23;20001;-76
2023/12/16 16:25:50;;;;;;;7.72;4.15;;;;;;;;;;6185092;23;19992;-75
2023/12/16 16:28:35;;;;;;;10.85;4.00;;;;;;;;;;6186460;23;20001;-76